sensor_id;sensor_type;location;lat;lon;timestamp;P1;durP1;ratioP1;P2;durP2;ratioP2
12910;SDS011;6523;49.758;6.120;2022-07-09T00:01:25;2.93;;;1.60;;
12910;SDS011;6523;49.758;6.120;2022-07-09T00:03:51;1.87;;;1.77;;
12910;SDS011;6523;49.758;6.120;2022-07-09T00:06:17;1.77;;;1.50;;
12910;SDS011;6523;49.758;6.120;2022-07-09T00:08:43;1.93;;;1.60;;
12910;SDS011;6523;49.758;6.120;2022-07-09T00:11:09;1.93;;;1.50;;
12910;SDS011;6523;49.758;6.120;2022-07-09T00:13:34;2.10;;;1.70;;
12910;SDS011;6523;49.758;6.120;2022-07-09T00:16:00;2.53;;;1.60;;
12910;SDS011;6523;49.758;6.120;2022-07-09T00:18:25;1.77;;;1.40;;
12910;SDS011;6523;49.758;6.120;2022-07-09T00:20:53;2.97;;;1.60;;
12910;SDS011;6523;49.758;6.120;2022-07-09T00:23:20;1.83;;;1.40;;
12910;SDS011;6523;49.758;6.120;2022-07-09T00:25:45;1.73;;;1.50;;
12910;SDS011;6523;49.758;6.120;2022-07-09T00:28:11;3.97;;;2.20;;
12910;SDS011;6523;49.758;6.120;2022-07-09T00:30:36;1.83;;;1.60;;
12910;SDS011;6523;49.758;6.120;2022-07-09T00:33:02;1.67;;;1.53;;
12910;SDS011;6523;49.758;6.120;2022-07-09T00:35:28;2.17;;;1.60;;
12910;SDS011;6523;49.758;6.120;2022-07-09T00:37:54;2.17;;;1.80;;
12910;SDS011;6523;49.758;6.120;2022-07-09T00:40:19;3.00;;;2.00;;
12910;SDS011;6523;49.758;6.120;2022-07-09T00:42:45;4.90;;;2.20;;
12910;SDS011;6523;49.758;6.120;2022-07-09T00:45:10;3.20;;;2.00;;
12910;SDS011;6523;49.758;6.120;2022-07-09T00:47:36;2.47;;;1.70;;
12910;SDS011;6523;49.758;6.120;2022-07-09T00:50:02;2.70;;;1.70;;
12910;SDS011;6523;49.758;6.120;2022-07-09T00:52:29;2.40;;;1.77;;
12910;SDS011;6523;49.758;6.120;2022-07-09T00:54:57;7.13;;;2.40;;
12910;SDS011;6523;49.758;6.120;2022-07-09T00:57:25;2.50;;;1.70;;
12910;SDS011;6523;49.758;6.120;2022-07-09T00:59:50;3.13;;;1.60;;
12910;SDS011;6523;49.758;6.120;2022-07-09T01:02:17;3.10;;;1.60;;
12910;SDS011;6523;49.758;6.120;2022-07-09T01:04:46;2.47;;;1.53;;
12910;SDS011;6523;49.758;6.120;2022-07-09T01:07:12;1.80;;;1.70;;
12910;SDS011;6523;49.758;6.120;2022-07-09T01:09:37;2.33;;;1.67;;
12910;SDS011;6523;49.758;6.120;2022-07-09T01:12:04;3.73;;;1.53;;
12910;SDS011;6523;49.758;6.120;2022-07-09T01:14:30;1.80;;;1.70;;
12910;SDS011;6523;49.758;6.120;2022-07-09T01:16:56;3.87;;;2.20;;
12910;SDS011;6523;49.758;6.120;2022-07-09T01:19:23;1.97;;;1.87;;
12910;SDS011;6523;49.758;6.120;2022-07-09T01:21:49;2.37;;;2.10;;
12910;SDS011;6523;49.758;6.120;2022-07-09T01:24:15;2.77;;;1.90;;
12910;SDS011;6523;49.758;6.120;2022-07-09T01:26:40;2.63;;;2.43;;
12910;SDS011;6523;49.758;6.120;2022-07-09T01:29:06;3.23;;;2.20;;
12910;SDS011;6523;49.758;6.120;2022-07-09T01:31:31;4.27;;;2.37;;
12910;SDS011;6523;49.758;6.120;2022-07-09T01:33:57;2.53;;;2.10;;
12910;SDS011;6523;49.758;6.120;2022-07-09T01:36:22;4.20;;;2.40;;
12910;SDS011;6523;49.758;6.120;2022-07-09T01:38:49;2.13;;;1.93;;
12910;SDS011;6523;49.758;6.120;2022-07-09T01:41:14;4.70;;;2.33;;
12910;SDS011;6523;49.758;6.120;2022-07-09T01:43:40;4.00;;;2.00;;
12910;SDS011;6523;49.758;6.120;2022-07-09T01:46:05;2.20;;;2.00;;
12910;SDS011;6523;49.758;6.120;2022-07-09T01:48:32;3.07;;;2.07;;
12910;SDS011;6523;49.758;6.120;2022-07-09T01:50:59;3.17;;;1.90;;
12910;SDS011;6523;49.758;6.120;2022-07-09T01:53:24;1.97;;;1.77;;
12910;SDS011;6523;49.758;6.120;2022-07-09T01:55:50;2.87;;;2.30;;
12910;SDS011;6523;49.758;6.120;2022-07-09T01:58:16;1.97;;;1.77;;
12910;SDS011;6523;49.758;6.120;2022-07-09T02:00:41;3.30;;;1.90;;
12910;SDS011;6523;49.758;6.120;2022-07-09T02:03:07;2.93;;;2.63;;
12910;SDS011;6523;49.758;6.120;2022-07-09T02:05:32;2.33;;;2.00;;
12910;SDS011;6523;49.758;6.120;2022-07-09T02:07:58;2.03;;;1.80;;
12910;SDS011;6523;49.758;6.120;2022-07-09T02:10:24;3.10;;;1.87;;
12910;SDS011;6523;49.758;6.120;2022-07-09T02:12:49;3.63;;;2.50;;
12910;SDS011;6523;49.758;6.120;2022-07-09T02:15:15;3.13;;;2.63;;
12910;SDS011;6523;49.758;6.120;2022-07-09T02:17:40;3.13;;;2.83;;
12910;SDS011;6523;49.758;6.120;2022-07-09T02:20:06;3.23;;;2.90;;
12910;SDS011;6523;49.758;6.120;2022-07-09T02:22:33;5.17;;;2.80;;
12910;SDS011;6523;49.758;6.120;2022-07-09T02:24:59;3.13;;;2.83;;
12910;SDS011;6523;49.758;6.120;2022-07-09T02:27:25;4.43;;;2.60;;
12910;SDS011;6523;49.758;6.120;2022-07-09T02:29:50;3.00;;;2.67;;
12910;SDS011;6523;49.758;6.120;2022-07-09T02:32:16;2.83;;;2.60;;
12910;SDS011;6523;49.758;6.120;2022-07-09T02:34:41;3.70;;;2.67;;
12910;SDS011;6523;49.758;6.120;2022-07-09T02:37:07;2.67;;;2.47;;
12910;SDS011;6523;49.758;6.120;2022-07-09T02:39:33;2.80;;;2.60;;
12910;SDS011;6523;49.758;6.120;2022-07-09T02:41:59;3.37;;;2.20;;
12910;SDS011;6523;49.758;6.120;2022-07-09T02:44:24;2.60;;;2.30;;
12910;SDS011;6523;49.758;6.120;2022-07-09T02:46:50;3.40;;;2.63;;
12910;SDS011;6523;49.758;6.120;2022-07-09T02:49:16;3.23;;;2.80;;
12910;SDS011;6523;49.758;6.120;2022-07-09T02:51:41;3.50;;;3.20;;
12910;SDS011;6523;49.758;6.120;2022-07-09T02:54:07;3.10;;;2.90;;
12910;SDS011;6523;49.758;6.120;2022-07-09T02:56:33;3.27;;;2.97;;
12910;SDS011;6523;49.758;6.120;2022-07-09T02:58:58;4.67;;;3.03;;
12910;SDS011;6523;49.758;6.120;2022-07-09T03:01:24;2.80;;;2.60;;
12910;SDS011;6523;49.758;6.120;2022-07-09T03:03:50;3.17;;;2.87;;
12910;SDS011;6523;49.758;6.120;2022-07-09T03:06:15;3.63;;;3.30;;
12910;SDS011;6523;49.758;6.120;2022-07-09T03:08:41;3.40;;;3.03;;
12910;SDS011;6523;49.758;6.120;2022-07-09T03:11:07;3.80;;;3.50;;
12910;SDS011;6523;49.758;6.120;2022-07-09T03:13:33;3.97;;;2.80;;
12910;SDS011;6523;49.758;6.120;2022-07-09T03:15:59;3.20;;;2.90;;
12910;SDS011;6523;49.758;6.120;2022-07-09T03:18:25;2.80;;;2.60;;
12910;SDS011;6523;49.758;6.120;2022-07-09T03:20:51;4.60;;;2.90;;
12910;SDS011;6523;49.758;6.120;2022-07-09T03:23:16;4.90;;;3.03;;
12910;SDS011;6523;49.758;6.120;2022-07-09T03:25:42;3.47;;;3.17;;
12910;SDS011;6523;49.758;6.120;2022-07-09T03:28:08;3.30;;;3.00;;
12910;SDS011;6523;49.758;6.120;2022-07-09T03:30:34;2.90;;;2.60;;
12910;SDS011;6523;49.758;6.120;2022-07-09T03:33:00;3.20;;;2.90;;
12910;SDS011;6523;49.758;6.120;2022-07-09T03:35:25;3.43;;;2.90;;
12910;SDS011;6523;49.758;6.120;2022-07-09T03:37:51;3.00;;;2.80;;
12910;SDS011;6523;49.758;6.120;2022-07-09T03:40:17;3.90;;;2.70;;
12910;SDS011;6523;49.758;6.120;2022-07-09T03:42:43;3.03;;;2.73;;
12910;SDS011;6523;49.758;6.120;2022-07-09T03:45:08;2.90;;;2.57;;
12910;SDS011;6523;49.758;6.120;2022-07-09T03:47:34;4.50;;;3.50;;
12910;SDS011;6523;49.758;6.120;2022-07-09T03:50:00;3.87;;;3.47;;
12910;SDS011;6523;49.758;6.120;2022-07-09T03:52:26;6.60;;;3.20;;
12910;SDS011;6523;49.758;6.120;2022-07-09T03:54:51;3.57;;;2.70;;
12910;SDS011;6523;49.758;6.120;2022-07-09T03:57:17;5.27;;;3.47;;
12910;SDS011;6523;49.758;6.120;2022-07-09T03:59:42;3.60;;;3.30;;
12910;SDS011;6523;49.758;6.120;2022-07-09T04:02:08;3.53;;;3.20;;
12910;SDS011;6523;49.758;6.120;2022-07-09T04:04:34;3.20;;;3.00;;
12910;SDS011;6523;49.758;6.120;2022-07-09T04:06:59;3.50;;;2.90;;
12910;SDS011;6523;49.758;6.120;2022-07-09T04:09:25;3.63;;;2.80;;
12910;SDS011;6523;49.758;6.120;2022-07-09T04:11:51;3.60;;;3.30;;
12910;SDS011;6523;49.758;6.120;2022-07-09T04:14:16;4.97;;;2.93;;
12910;SDS011;6523;49.758;6.120;2022-07-09T04:16:44;3.60;;;3.17;;
12910;SDS011;6523;49.758;6.120;2022-07-09T04:19:11;4.10;;;3.33;;
12910;SDS011;6523;49.758;6.120;2022-07-09T04:21:37;4.13;;;3.10;;
12910;SDS011;6523;49.758;6.120;2022-07-09T04:24:02;3.37;;;3.07;;
12910;SDS011;6523;49.758;6.120;2022-07-09T04:26:28;4.13;;;3.43;;
12910;SDS011;6523;49.758;6.120;2022-07-09T04:28:54;4.90;;;3.07;;
12910;SDS011;6523;49.758;6.120;2022-07-09T04:31:19;5.00;;;3.43;;
12910;SDS011;6523;49.758;6.120;2022-07-09T04:33:46;5.63;;;3.73;;
12910;SDS011;6523;49.758;6.120;2022-07-09T04:36:12;3.77;;;3.47;;
12910;SDS011;6523;49.758;6.120;2022-07-09T04:38:38;4.23;;;3.33;;
12910;SDS011;6523;49.758;6.120;2022-07-09T04:41:03;3.83;;;3.20;;
12910;SDS011;6523;49.758;6.120;2022-07-09T04:43:30;4.77;;;3.67;;
12910;SDS011;6523;49.758;6.120;2022-07-09T04:45:56;5.20;;;3.33;;
12910;SDS011;6523;49.758;6.120;2022-07-09T04:48:22;4.10;;;2.60;;
12910;SDS011;6523;49.758;6.120;2022-07-09T04:50:48;3.13;;;2.83;;
12910;SDS011;6523;49.758;6.120;2022-07-09T04:53:13;3.93;;;3.20;;
12910;SDS011;6523;49.758;6.120;2022-07-09T04:55:39;5.57;;;3.37;;
12910;SDS011;6523;49.758;6.120;2022-07-09T04:58:04;5.60;;;3.43;;
12910;SDS011;6523;49.758;6.120;2022-07-09T05:00:30;3.47;;;3.07;;
12910;SDS011;6523;49.758;6.120;2022-07-09T05:02:58;3.33;;;2.97;;
12910;SDS011;6523;49.758;6.120;2022-07-09T05:05:23;4.90;;;3.20;;
12910;SDS011;6523;49.758;6.120;2022-07-09T05:07:50;3.43;;;3.17;;
12910;SDS011;6523;49.758;6.120;2022-07-09T05:10:16;3.90;;;3.50;;
12910;SDS011;6523;49.758;6.120;2022-07-09T05:12:42;5.57;;;3.63;;
12910;SDS011;6523;49.758;6.120;2022-07-09T05:15:08;4.93;;;3.80;;
12910;SDS011;6523;49.758;6.120;2022-07-09T05:17:34;3.93;;;3.53;;
12910;SDS011;6523;49.758;6.120;2022-07-09T05:20:02;5.47;;;4.27;;
12910;SDS011;6523;49.758;6.120;2022-07-09T05:22:29;5.33;;;3.60;;
12910;SDS011;6523;49.758;6.120;2022-07-09T05:24:59;3.60;;;3.30;;
12910;SDS011;6523;49.758;6.120;2022-07-09T05:27:25;3.67;;;3.33;;
12910;SDS011;6523;49.758;6.120;2022-07-09T05:29:52;5.23;;;4.40;;
12910;SDS011;6523;49.758;6.120;2022-07-09T05:32:18;6.17;;;4.03;;
12910;SDS011;6523;49.758;6.120;2022-07-09T05:34:43;4.63;;;4.17;;
12910;SDS011;6523;49.758;6.120;2022-07-09T05:37:09;5.47;;;4.00;;
12910;SDS011;6523;49.758;6.120;2022-07-09T05:39:35;4.57;;;3.60;;
12910;SDS011;6523;49.758;6.120;2022-07-09T05:42:00;6.57;;;4.80;;
12910;SDS011;6523;49.758;6.120;2022-07-09T05:44:26;4.60;;;4.10;;
12910;SDS011;6523;49.758;6.120;2022-07-09T05:46:52;4.97;;;4.47;;
12910;SDS011;6523;49.758;6.120;2022-07-09T05:49:17;6.30;;;4.33;;
12910;SDS011;6523;49.758;6.120;2022-07-09T05:51:43;6.50;;;4.63;;
12910;SDS011;6523;49.758;6.120;2022-07-09T05:54:08;6.60;;;5.10;;
12910;SDS011;6523;49.758;6.120;2022-07-09T05:56:34;5.20;;;4.60;;
12910;SDS011;6523;49.758;6.120;2022-07-09T05:59:01;6.47;;;4.63;;
12910;SDS011;6523;49.758;6.120;2022-07-09T06:01:28;6.00;;;4.27;;
12910;SDS011;6523;49.758;6.120;2022-07-09T06:03:54;5.03;;;4.37;;
12910;SDS011;6523;49.758;6.120;2022-07-09T06:06:20;5.87;;;4.40;;
12910;SDS011;6523;49.758;6.120;2022-07-09T06:08:46;5.33;;;4.80;;
12910;SDS011;6523;49.758;6.120;2022-07-09T06:11:11;5.47;;;4.60;;
12910;SDS011;6523;49.758;6.120;2022-07-09T06:13:37;5.87;;;5.20;;
12910;SDS011;6523;49.758;6.120;2022-07-09T06:16:03;7.17;;;5.00;;
12910;SDS011;6523;49.758;6.120;2022-07-09T06:18:29;8.23;;;5.40;;
12910;SDS011;6523;49.758;6.120;2022-07-09T06:20:55;5.93;;;4.90;;
12910;SDS011;6523;49.758;6.120;2022-07-09T06:23:20;7.93;;;4.90;;
12910;SDS011;6523;49.758;6.120;2022-07-09T06:25:46;5.60;;;5.10;;
12910;SDS011;6523;49.758;6.120;2022-07-09T06:28:12;7.33;;;5.07;;
12910;SDS011;6523;49.758;6.120;2022-07-09T06:30:38;10.50;;;5.50;;
12910;SDS011;6523;49.758;6.120;2022-07-09T06:33:04;6.53;;;5.03;;
12910;SDS011;6523;49.758;6.120;2022-07-09T06:35:30;5.67;;;4.80;;
12910;SDS011;6523;49.758;6.120;2022-07-09T06:37:56;10.00;;;4.83;;
12910;SDS011;6523;49.758;6.120;2022-07-09T06:40:22;8.07;;;4.70;;
12910;SDS011;6523;49.758;6.120;2022-07-09T06:42:48;5.87;;;5.10;;
12910;SDS011;6523;49.758;6.120;2022-07-09T06:45:14;5.43;;;4.93;;
12910;SDS011;6523;49.758;6.120;2022-07-09T06:47:39;5.73;;;4.90;;
12910;SDS011;6523;49.758;6.120;2022-07-09T06:50:05;7.40;;;4.87;;
12910;SDS011;6523;49.758;6.120;2022-07-09T06:52:31;6.90;;;4.60;;
12910;SDS011;6523;49.758;6.120;2022-07-09T06:54:57;5.93;;;4.30;;
12910;SDS011;6523;49.758;6.120;2022-07-09T06:57:23;7.03;;;5.07;;
12910;SDS011;6523;49.758;6.120;2022-07-09T06:59:48;5.97;;;4.63;;
12910;SDS011;6523;49.758;6.120;2022-07-09T07:02:14;5.30;;;4.80;;
12910;SDS011;6523;49.758;6.120;2022-07-09T07:04:43;7.20;;;4.70;;
12910;SDS011;6523;49.758;6.120;2022-07-09T07:07:09;7.83;;;5.00;;
12910;SDS011;6523;49.758;6.120;2022-07-09T07:09:34;7.87;;;4.90;;
12910;SDS011;6523;49.758;6.120;2022-07-09T07:12:00;6.77;;;4.87;;
12910;SDS011;6523;49.758;6.120;2022-07-09T07:14:26;6.57;;;5.30;;
12910;SDS011;6523;49.758;6.120;2022-07-09T07:16:52;7.93;;;5.10;;
12910;SDS011;6523;49.758;6.120;2022-07-09T07:19:18;6.37;;;5.30;;
12910;SDS011;6523;49.758;6.120;2022-07-09T07:21:45;7.43;;;5.67;;
12910;SDS011;6523;49.758;6.120;2022-07-09T07:24:12;7.47;;;5.30;;
12910;SDS011;6523;49.758;6.120;2022-07-09T07:26:38;6.50;;;4.90;;
12910;SDS011;6523;49.758;6.120;2022-07-09T07:29:04;6.50;;;4.90;;
12910;SDS011;6523;49.758;6.120;2022-07-09T07:31:29;6.30;;;4.93;;
12910;SDS011;6523;49.758;6.120;2022-07-09T07:33:56;5.23;;;4.70;;
12910;SDS011;6523;49.758;6.120;2022-07-09T07:36:22;5.00;;;4.50;;
12910;SDS011;6523;49.758;6.120;2022-07-09T07:38:47;5.67;;;4.43;;
12910;SDS011;6523;49.758;6.120;2022-07-09T07:41:13;5.97;;;4.43;;
12910;SDS011;6523;49.758;6.120;2022-07-09T07:43:40;8.50;;;4.03;;
12910;SDS011;6523;49.758;6.120;2022-07-09T07:46:06;4.87;;;3.57;;
12910;SDS011;6523;49.758;6.120;2022-07-09T07:48:32;4.10;;;3.70;;
12910;SDS011;6523;49.758;6.120;2022-07-09T07:51:00;7.63;;;3.87;;
12910;SDS011;6523;49.758;6.120;2022-07-09T07:53:26;3.93;;;3.13;;
12910;SDS011;6523;49.758;6.120;2022-07-09T07:55:52;4.77;;;3.33;;
12910;SDS011;6523;49.758;6.120;2022-07-09T07:58:18;3.20;;;2.87;;
12910;SDS011;6523;49.758;6.120;2022-07-09T08:00:44;2.93;;;2.73;;
12910;SDS011;6523;49.758;6.120;2022-07-09T08:03:09;2.93;;;2.63;;
12910;SDS011;6523;49.758;6.120;2022-07-09T08:05:35;4.23;;;3.17;;
12910;SDS011;6523;49.758;6.120;2022-07-09T08:08:01;3.70;;;3.30;;
12910;SDS011;6523;49.758;6.120;2022-07-09T08:10:26;4.87;;;3.63;;
12910;SDS011;6523;49.758;6.120;2022-07-09T08:12:52;6.83;;;3.70;;
12910;SDS011;6523;49.758;6.120;2022-07-09T08:15:18;4.00;;;3.07;;
12910;SDS011;6523;49.758;6.120;2022-07-09T08:17:43;4.60;;;3.30;;
12910;SDS011;6523;49.758;6.120;2022-07-09T08:20:09;4.00;;;2.60;;
12910;SDS011;6523;49.758;6.120;2022-07-09T08:22:35;5.43;;;3.30;;
12910;SDS011;6523;49.758;6.120;2022-07-09T08:25:02;5.23;;;3.10;;
12910;SDS011;6523;49.758;6.120;2022-07-09T08:27:28;4.33;;;2.97;;
12910;SDS011;6523;49.758;6.120;2022-07-09T08:29:54;5.20;;;3.20;;
12910;SDS011;6523;49.758;6.120;2022-07-09T08:32:19;7.20;;;3.47;;
12910;SDS011;6523;49.758;6.120;2022-07-09T08:34:45;3.77;;;2.53;;
12910;SDS011;6523;49.758;6.120;2022-07-09T08:37:11;3.87;;;3.23;;
12910;SDS011;6523;49.758;6.120;2022-07-09T08:39:37;8.70;;;3.27;;
12910;SDS011;6523;49.758;6.120;2022-07-09T08:42:03;3.43;;;2.50;;
12910;SDS011;6523;49.758;6.120;2022-07-09T08:44:37;4.43;;;2.70;;
12910;SDS011;6523;49.758;6.120;2022-07-09T08:47:03;1.33;;;1.23;;
12910;SDS011;6523;49.758;6.120;2022-07-09T08:49:30;2.30;;;1.60;;
12910;SDS011;6523;49.758;6.120;2022-07-09T08:51:56;2.10;;;1.70;;
12910;SDS011;6523;49.758;6.120;2022-07-09T08:54:22;2.20;;;1.73;;
12910;SDS011;6523;49.758;6.120;2022-07-09T08:56:51;2.90;;;1.70;;
12910;SDS011;6523;49.758;6.120;2022-07-09T08:59:17;1.00;;;1.00;;
12910;SDS011;6523;49.758;6.120;2022-07-09T09:01:43;3.07;;;1.60;;
12910;SDS011;6523;49.758;6.120;2022-07-09T09:04:09;1.30;;;1.20;;
12910;SDS011;6523;49.758;6.120;2022-07-09T09:06:37;3.33;;;1.80;;
12910;SDS011;6523;49.758;6.120;2022-07-09T09:09:06;1.60;;;1.27;;
12910;SDS011;6523;49.758;6.120;2022-07-09T09:11:33;2.90;;;1.00;;
12910;SDS011;6523;49.758;6.120;2022-07-09T09:14:00;2.00;;;1.70;;
12910;SDS011;6523;49.758;6.120;2022-07-09T09:16:26;4.17;;;1.67;;
12910;SDS011;6523;49.758;6.120;2022-07-09T09:18:52;2.30;;;1.80;;
12910;SDS011;6523;49.758;6.120;2022-07-09T09:21:22;1.67;;;1.47;;
12910;SDS011;6523;49.758;6.120;2022-07-09T09:23:50;4.30;;;1.50;;
12910;SDS011;6523;49.758;6.120;2022-07-09T09:26:20;2.63;;;1.70;;
12910;SDS011;6523;49.758;6.120;2022-07-09T09:28:54;2.63;;;1.70;;
12910;SDS011;6523;49.758;6.120;2022-07-09T09:31:25;1.33;;;1.20;;
12910;SDS011;6523;49.758;6.120;2022-07-09T09:36:41;2.40;;;1.33;;
12910;SDS011;6523;49.758;6.120;2022-07-09T09:41:44;1.23;;;1.13;;
12910;SDS011;6523;49.758;6.120;2022-07-09T09:44:12;3.70;;;1.43;;
12910;SDS011;6523;49.758;6.120;2022-07-09T09:46:40;1.80;;;1.30;;
12910;SDS011;6523;49.758;6.120;2022-07-09T09:49:07;1.17;;;1.17;;
12910;SDS011;6523;49.758;6.120;2022-07-09T09:51:38;1.20;;;1.10;;
12910;SDS011;6523;49.758;6.120;2022-07-09T09:54:09;2.27;;;1.30;;
12910;SDS011;6523;49.758;6.120;2022-07-09T09:56:36;2.80;;;1.10;;
12910;SDS011;6523;49.758;6.120;2022-07-09T09:59:04;1.30;;;1.20;;
12910;SDS011;6523;49.758;6.120;2022-07-09T10:01:30;1.73;;;1.00;;
12910;SDS011;6523;49.758;6.120;2022-07-09T10:03:56;1.10;;;1.00;;
12910;SDS011;6523;49.758;6.120;2022-07-09T10:06:22;1.13;;;1.03;;
12910;SDS011;6523;49.758;6.120;2022-07-09T10:08:50;1.37;;;1.27;;
12910;SDS011;6523;49.758;6.120;2022-07-09T10:11:16;0.83;;;0.83;;
12910;SDS011;6523;49.758;6.120;2022-07-09T10:13:51;1.27;;;1.00;;
12910;SDS011;6523;49.758;6.120;2022-07-09T10:16:20;1.80;;;1.00;;
12910;SDS011;6523;49.758;6.120;2022-07-09T10:18:57;1.10;;;1.00;;
12910;SDS011;6523;49.758;6.120;2022-07-09T10:21:33;1.60;;;0.90;;
12910;SDS011;6523;49.758;6.120;2022-07-09T10:24:07;0.90;;;0.90;;
12910;SDS011;6523;49.758;6.120;2022-07-09T10:26:52;1.57;;;0.90;;
12910;SDS011;6523;49.758;6.120;2022-07-09T10:29:27;2.20;;;0.90;;
12910;SDS011;6523;49.758;6.120;2022-07-09T10:31:53;2.07;;;1.17;;
12910;SDS011;6523;49.758;6.120;2022-07-09T10:37:29;1.53;;;1.20;;
12910;SDS011;6523;49.758;6.120;2022-07-09T10:39:56;1.77;;;1.00;;
12910;SDS011;6523;49.758;6.120;2022-07-09T10:42:22;2.27;;;1.00;;
12910;SDS011;6523;49.758;6.120;2022-07-09T10:44:50;1.30;;;1.20;;
12910;SDS011;6523;49.758;6.120;2022-07-09T10:47:17;1.10;;;1.00;;
12910;SDS011;6523;49.758;6.120;2022-07-09T10:49:43;0.93;;;0.93;;
12910;SDS011;6523;49.758;6.120;2022-07-09T10:52:08;1.13;;;1.10;;
12910;SDS011;6523;49.758;6.120;2022-07-09T10:54:34;1.10;;;0.93;;
12910;SDS011;6523;49.758;6.120;2022-07-09T10:57:10;1.67;;;1.10;;
12910;SDS011;6523;49.758;6.120;2022-07-09T10:59:38;1.33;;;1.20;;
12910;SDS011;6523;49.758;6.120;2022-07-09T11:02:03;1.03;;;0.97;;
12910;SDS011;6523;49.758;6.120;2022-07-09T11:04:30;1.77;;;1.00;;
12910;SDS011;6523;49.758;6.120;2022-07-09T11:06:57;1.10;;;0.97;;
12910;SDS011;6523;49.758;6.120;2022-07-09T11:09:26;1.10;;;1.10;;
12910;SDS011;6523;49.758;6.120;2022-07-09T11:11:55;1.43;;;1.20;;
12910;SDS011;6523;49.758;6.120;2022-07-09T11:14:21;0.97;;;0.93;;
12910;SDS011;6523;49.758;6.120;2022-07-09T11:16:54;1.80;;;0.87;;
12910;SDS011;6523;49.758;6.120;2022-07-09T11:19:20;0.90;;;0.90;;
12910;SDS011;6523;49.758;6.120;2022-07-09T11:21:47;1.10;;;1.10;;
12910;SDS011;6523;49.758;6.120;2022-07-09T11:24:20;1.07;;;1.07;;
12910;SDS011;6523;49.758;6.120;2022-07-09T11:26:48;1.23;;;1.13;;
12910;SDS011;6523;49.758;6.120;2022-07-09T11:29:16;1.10;;;1.10;;
12910;SDS011;6523;49.758;6.120;2022-07-09T11:31:46;3.97;;;1.47;;
12910;SDS011;6523;49.758;6.120;2022-07-09T11:34:16;0.93;;;0.90;;
12910;SDS011;6523;49.758;6.120;2022-07-09T11:36:43;2.00;;;1.20;;
12910;SDS011;6523;49.758;6.120;2022-07-09T11:39:25;1.30;;;1.20;;
12910;SDS011;6523;49.758;6.120;2022-07-09T11:41:55;1.87;;;1.13;;
12910;SDS011;6523;49.758;6.120;2022-07-09T11:44:25;1.30;;;1.20;;
12910;SDS011;6523;49.758;6.120;2022-07-09T11:46:59;1.43;;;1.10;;
12910;SDS011;6523;49.758;6.120;2022-07-09T11:49:32;1.30;;;1.20;;
12910;SDS011;6523;49.758;6.120;2022-07-09T11:51:58;2.70;;;1.27;;
12910;SDS011;6523;49.758;6.120;2022-07-09T11:54:27;1.40;;;1.17;;
12910;SDS011;6523;49.758;6.120;2022-07-09T11:56:56;1.57;;;1.30;;
12910;SDS011;6523;49.758;6.120;2022-07-09T11:59:25;1.10;;;1.00;;
12910;SDS011;6523;49.758;6.120;2022-07-09T12:01:56;1.30;;;1.10;;
12910;SDS011;6523;49.758;6.120;2022-07-09T12:04:22;1.10;;;0.97;;
12910;SDS011;6523;49.758;6.120;2022-07-09T12:06:51;2.03;;;1.23;;
12910;SDS011;6523;49.758;6.120;2022-07-09T12:09:26;1.30;;;1.17;;
12910;SDS011;6523;49.758;6.120;2022-07-09T12:11:54;2.77;;;1.30;;
12910;SDS011;6523;49.758;6.120;2022-07-09T12:14:19;1.47;;;1.20;;
12910;SDS011;6523;49.758;6.120;2022-07-09T12:16:45;1.67;;;1.10;;
12910;SDS011;6523;49.758;6.120;2022-07-09T12:19:10;1.67;;;1.20;;
12910;SDS011;6523;49.758;6.120;2022-07-09T12:21:36;1.20;;;1.13;;
12910;SDS011;6523;49.758;6.120;2022-07-09T12:24:02;1.10;;;1.10;;
12910;SDS011;6523;49.758;6.120;2022-07-09T12:26:27;2.23;;;1.20;;
12910;SDS011;6523;49.758;6.120;2022-07-09T12:28:55;1.37;;;1.20;;
12910;SDS011;6523;49.758;6.120;2022-07-09T12:31:21;1.30;;;1.20;;
12910;SDS011;6523;49.758;6.120;2022-07-09T12:33:47;2.13;;;1.23;;
12910;SDS011;6523;49.758;6.120;2022-07-09T12:36:13;1.47;;;1.37;;
12910;SDS011;6523;49.758;6.120;2022-07-09T12:38:41;1.17;;;1.07;;
12910;SDS011;6523;49.758;6.120;2022-07-09T12:41:07;1.50;;;1.40;;
12910;SDS011;6523;49.758;6.120;2022-07-09T12:43:32;2.53;;;1.33;;
12910;SDS011;6523;49.758;6.120;2022-07-09T12:45:58;2.33;;;1.23;;
12910;SDS011;6523;49.758;6.120;2022-07-09T12:48:24;1.40;;;1.30;;
12910;SDS011;6523;49.758;6.120;2022-07-09T12:50:49;1.73;;;1.57;;
12910;SDS011;6523;49.758;6.120;2022-07-09T12:53:15;1.60;;;1.50;;
12910;SDS011;6523;49.758;6.120;2022-07-09T12:55:40;1.43;;;1.33;;
12910;SDS011;6523;49.758;6.120;2022-07-09T12:58:06;1.40;;;1.30;;
12910;SDS011;6523;49.758;6.120;2022-07-09T13:00:31;1.63;;;1.53;;
12910;SDS011;6523;49.758;6.120;2022-07-09T13:02:57;2.27;;;1.63;;
12910;SDS011;6523;49.758;6.120;2022-07-09T13:05:22;1.43;;;1.33;;
12910;SDS011;6523;49.758;6.120;2022-07-09T13:07:48;1.60;;;1.50;;
12910;SDS011;6523;49.758;6.120;2022-07-09T13:10:14;1.27;;;1.17;;
12910;SDS011;6523;49.758;6.120;2022-07-09T13:12:39;1.40;;;1.30;;
12910;SDS011;6523;49.758;6.120;2022-07-09T13:15:05;1.70;;;1.47;;
12910;SDS011;6523;49.758;6.120;2022-07-09T13:17:31;2.03;;;1.57;;
12910;SDS011;6523;49.758;6.120;2022-07-09T13:19:56;1.93;;;1.60;;
12910;SDS011;6523;49.758;6.120;2022-07-09T13:22:22;1.53;;;1.43;;
12910;SDS011;6523;49.758;6.120;2022-07-09T13:24:47;1.93;;;1.73;;
12910;SDS011;6523;49.758;6.120;2022-07-09T13:27:13;1.60;;;1.50;;
12910;SDS011;6523;49.758;6.120;2022-07-09T13:29:39;2.17;;;1.50;;
12910;SDS011;6523;49.758;6.120;2022-07-09T13:32:05;1.53;;;1.40;;
12910;SDS011;6523;49.758;6.120;2022-07-09T13:34:31;3.40;;;1.90;;
12910;SDS011;6523;49.758;6.120;2022-07-09T13:36:56;1.77;;;1.67;;
12910;SDS011;6523;49.758;6.120;2022-07-09T13:39:22;1.93;;;1.60;;
12910;SDS011;6523;49.758;6.120;2022-07-09T13:41:48;1.63;;;1.50;;
12910;SDS011;6523;49.758;6.120;2022-07-09T13:44:13;2.30;;;2.10;;
12910;SDS011;6523;49.758;6.120;2022-07-09T13:46:39;1.50;;;1.40;;
12910;SDS011;6523;49.758;6.120;2022-07-09T13:49:04;1.70;;;1.60;;
12910;SDS011;6523;49.758;6.120;2022-07-09T13:51:30;2.20;;;1.60;;
12910;SDS011;6523;49.758;6.120;2022-07-09T13:53:58;2.90;;;1.60;;
12910;SDS011;6523;49.758;6.120;2022-07-09T13:56:24;2.20;;;1.70;;
12910;SDS011;6523;49.758;6.120;2022-07-09T13:58:49;1.70;;;1.60;;
12910;SDS011;6523;49.758;6.120;2022-07-09T14:01:15;2.03;;;1.93;;
12910;SDS011;6523;49.758;6.120;2022-07-09T14:03:41;2.53;;;1.77;;
12910;SDS011;6523;49.758;6.120;2022-07-09T14:06:06;1.50;;;1.40;;
12910;SDS011;6523;49.758;6.120;2022-07-09T14:08:32;2.67;;;1.50;;
12910;SDS011;6523;49.758;6.120;2022-07-09T14:10:57;1.60;;;1.50;;
12910;SDS011;6523;49.758;6.120;2022-07-09T14:13:24;1.80;;;1.60;;
12910;SDS011;6523;49.758;6.120;2022-07-09T14:15:52;2.27;;;1.83;;
12910;SDS011;6523;49.758;6.120;2022-07-09T14:18:18;2.20;;;1.57;;
12910;SDS011;6523;49.758;6.120;2022-07-09T14:20:44;1.83;;;1.50;;
12910;SDS011;6523;49.758;6.120;2022-07-09T14:23:09;2.70;;;1.50;;
12910;SDS011;6523;49.758;6.120;2022-07-09T14:25:35;1.97;;;1.60;;
12910;SDS011;6523;49.758;6.120;2022-07-09T14:28:00;3.10;;;1.70;;
12910;SDS011;6523;49.758;6.120;2022-07-09T14:30:26;1.67;;;1.40;;
12910;SDS011;6523;49.758;6.120;2022-07-09T14:32:52;1.70;;;1.60;;
12910;SDS011;6523;49.758;6.120;2022-07-09T14:35:17;1.70;;;1.60;;
12910;SDS011;6523;49.758;6.120;2022-07-09T14:37:43;1.70;;;1.60;;
12910;SDS011;6523;49.758;6.120;2022-07-09T14:40:09;2.23;;;1.70;;
12910;SDS011;6523;49.758;6.120;2022-07-09T14:42:35;1.90;;;1.60;;
12910;SDS011;6523;49.758;6.120;2022-07-09T14:45:00;3.53;;;1.40;;
12910;SDS011;6523;49.758;6.120;2022-07-09T14:47:26;2.43;;;1.63;;
12910;SDS011;6523;49.758;6.120;2022-07-09T14:49:51;2.07;;;1.60;;
12910;SDS011;6523;49.758;6.120;2022-07-09T14:52:19;1.57;;;1.43;;
12910;SDS011;6523;49.758;6.120;2022-07-09T14:54:46;2.00;;;1.63;;
12910;SDS011;6523;49.758;6.120;2022-07-09T14:57:12;1.63;;;1.50;;
12910;SDS011;6523;49.758;6.120;2022-07-09T14:59:37;2.10;;;1.70;;
12910;SDS011;6523;49.758;6.120;2022-07-09T15:02:03;2.10;;;1.90;;
12910;SDS011;6523;49.758;6.120;2022-07-09T15:04:29;1.90;;;1.73;;